Morgantown Municipal Walter L. Bill Hart Field
KMGW : now visible

Airfield :











YOU CAN JOIN US ON...

 
LOGIN :

Register | Disclaimer

   EN    FR    IT 

 









Legend :    VFR   Marginal VFR   IFR   Intensive IFR   Very Intensive IFR
Visi :
Ceiling :
>= 8 km
>= 3000ft
5 to 8 km
1000 to 3000 ft
1500m to 5 km
500 to 1000 ft
800 to 1500m
200 to 500 ft
< 800m
< 200 ft
Symbols :   Thunderstorms  Fog  Heavy snow  Heavy precipitations  Wind > 20 kt







- Airport Elevation : 1248 ft
- IATA code : MGW


KMGW - Morgantown Municipal Walter L. Bill Hart Field

CURRENT METAR :
  • 160553Z AUTO 00000KT 10SM CLR 19/14 A3012 RMK AO2 SLP189 T01940139 10233 20178 58006

EXPIRED METARs :
  • 160453Z AUTO 00000KT 10SM SCT100 19/14 A3012 RMK AO2 SLP192 T01890139 402830117
  • 160353Z AUTO 00000KT 10SM OVC100 21/13 A3014 RMK AO2 SLP197 T02110133

TAF KMGW
Valid from the 16 at 06:00 until the 17 at 06:00 UTC


160520Z 1606/1706 00000KT P6SM BKN100
FM161800 27005KT P6SM VCSH BKN040
FM170300 VRB03KT P6SM SCT040
No reported NOTAMs for that airfield.



MET'MAP, your aeronautical weather chart ! - Copyright ORBIFLY December 2007 - Disclaimer

ORBIFLY MET'MAP TEAM :

Programming & Development : Alexandra Zaïnal
Concept & Development : Baudouin d'Aumeries
Co-Development & Prog : Marc-Olivier Méhu
Technical & hardware support : Manuel Goepfert

Contact : metmap@orbifly.com




SOURCES & CREDITS :

   NOAA       Earth
Advisory